SAS264 ENBR-ENGM
Flight info
| Callsign | SAS264 |
|---|---|
| Flight time | N/A |
| Altitude | 27000 |
| Route | GOKAB DCT ULVAN DCT ADOPI |
| Aircraft | A321/M-SDE3FGHIRWY/LB1 |
Departure
| Time | 2026-05-05 15:51 |
|---|---|
| Airport | Bergen Airport, Flesland (ENBR) |
Arrival
| Time | N/A |
|---|---|
| Airport | Oslo-Gardermoen International Airport (ENGM) |
| Time | Latitude | Longitude | Altitude | Speed | Heading |
|---|---|---|---|---|---|
| 2026-05-05 15:26 | 60.28696 | 5.22906 | 179 ft | 0 kts | 80° |
| 2026-05-05 15:41 | 60.28696 | 5.22893 | 178 ft | 2 kts | 81° |
| 2026-05-05 15:41 | 60.28693 | 5.22864 | 178 ft | 2 kts | 80° |
| 2026-05-05 15:42 | 60.28691 | 5.22834 | 178 ft | 2 kts | 81° |
| 2026-05-05 15:42 | 60.28690 | 5.22828 | 178 ft | 0 kts | 81° |
| 2026-05-05 15:44 | 60.28692 | 5.22831 | 178 ft | 0 kts | 58° |
| 2026-05-05 15:44 | 60.28696 | 5.22834 | 178 ft | 0 kts | 1° |
| 2026-05-05 15:45 | 60.28705 | 5.22813 | 178 ft | 3 kts | 297° |
| 2026-05-05 15:45 | 60.28715 | 5.22749 | 178 ft | 6 kts | 281° |
| 2026-05-05 15:45 | 60.28715 | 5.22632 | 178 ft | 9 kts | 261° |
| 2026-05-05 15:45 | 60.28697 | 5.22486 | 178 ft | 11 kts | 244° |
| 2026-05-05 15:46 | 60.28704 | 5.22366 | 178 ft | 10 kts | 352° |
| 2026-05-05 15:46 | 60.28779 | 5.22330 | 178 ft | 12 kts | 343° |
| 2026-05-05 15:46 | 60.28880 | 5.22291 | 178 ft | 16 kts | 351° |
| 2026-05-05 15:46 | 60.29001 | 5.22249 | 178 ft | 18 kts | 349° |
| 2026-05-05 15:47 | 60.29131 | 5.22205 | 178 ft | 19 kts | 350° |
| 2026-05-05 15:47 | 60.29222 | 5.22175 | 178 ft | 20 kts | 351° |
| 2026-05-05 15:47 | 60.29413 | 5.22111 | 178 ft | 21 kts | 350° |
| 2026-05-05 15:47 | 60.29562 | 5.22060 | 178 ft | 22 kts | 349° |
| 2026-05-05 15:48 | 60.29718 | 5.22009 | 178 ft | 22 kts | 350° |
| 2026-05-05 15:48 | 60.29875 | 5.21955 | 178 ft | 23 kts | 350° |
| 2026-05-05 15:48 | 60.30035 | 5.21902 | 178 ft | 23 kts | 350° |
| 2026-05-05 15:48 | 60.30197 | 5.21845 | 178 ft | 23 kts | 350° |
| 2026-05-05 15:49 | 60.30352 | 5.21795 | 178 ft | 19 kts | 350° |
| 2026-05-05 15:49 | 60.30436 | 5.21746 | 178 ft | 7 kts | 310° |
| 2026-05-05 15:49 | 60.30441 | 5.21679 | 178 ft | 5 kts | 267° |
| 2026-05-05 15:49 | 60.30440 | 5.21663 | 178 ft | 0 kts | 262° |
| 2026-05-05 15:50 | 60.30440 | 5.21657 | 178 ft | 1 kts | 262° |
| 2026-05-05 15:50 | 60.30435 | 5.21608 | 178 ft | 5 kts | 254° |
| 2026-05-05 15:50 | 60.30413 | 5.21502 | 178 ft | 9 kts | 235° |
| 2026-05-05 15:50 | 60.30349 | 5.21479 | 178 ft | 11 kts | 170° |
| 2026-05-05 15:51 | 60.30103 | 5.21558 | 178 ft | 74 kts | 171° |
| 2026-05-05 15:51 | 60.29345 | 5.21813 | 179 ft | 145 kts | 170° |
| 2026-05-05 15:51 | 60.28213 | 5.22204 | 598 ft | 170 kts | 173° |
| 2026-05-05 15:51 | 60.27050 | 5.22587 | 1351 ft | 174 kts | 172° |
| 2026-05-05 15:52 | 60.25870 | 5.22985 | 2091 ft | 173 kts | 172° |
| 2026-05-05 15:52 | 60.24665 | 5.23396 | 2427 ft | 184 kts | 172° |
| 2026-05-05 15:52 | 60.23362 | 5.23835 | 2722 ft | 198 kts | 172° |
| 2026-05-05 15:52 | 60.21959 | 5.24305 | 3025 ft | 212 kts | 172° |
| 2026-05-05 15:53 | 60.20461 | 5.24802 | 3327 ft | 227 kts | 172° |
| 2026-05-05 15:53 | 60.18821 | 5.25352 | 3586 ft | 248 kts | 170° |
| 2026-05-05 15:53 | 60.17189 | 5.26647 | 3891 ft | 267 kts | 140° |
| 2026-05-05 15:53 | 60.16135 | 5.29709 | 4360 ft | 274 kts | 103° |
| 2026-05-05 15:54 | 60.16132 | 5.33422 | 5033 ft | 269 kts | 70° |
| 2026-05-05 15:54 | 60.16844 | 5.36888 | 5751 ft | 269 kts | 62° |
| 2026-05-05 15:54 | 60.17611 | 5.40323 | 6447 ft | 273 kts | 64° |
| 2026-05-05 15:54 | 60.18322 | 5.43860 | 7111 ft | 276 kts | 66° |
| 2026-05-05 15:55 | 60.18968 | 5.47480 | 7779 ft | 280 kts | 68° |
| 2026-05-05 15:55 | 60.19577 | 5.51194 | 8448 ft | 283 kts | 69° |
| 2026-05-05 15:55 | 60.20159 | 5.54969 | 9099 ft | 286 kts | 70° |
| 2026-05-05 15:55 | 60.20729 | 5.58810 | 9746 ft | 290 kts | 70° |
| 2026-05-05 15:56 | 60.21296 | 5.62715 | 10338 ft | 295 kts | 70° |
| 2026-05-05 15:56 | 60.21878 | 5.66757 | 10653 ft | 310 kts | 71° |
| 2026-05-05 15:56 | 60.22485 | 5.71014 | 10941 ft | 324 kts | 71° |
| 2026-05-05 15:56 | 60.23115 | 5.75468 | 11221 ft | 338 kts | 72° |
| 2026-05-05 15:57 | 60.23764 | 5.80084 | 11659 ft | 346 kts | 72° |
| 2026-05-05 15:57 | 60.24416 | 5.84748 | 12238 ft | 349 kts | 72° |
| 2026-05-05 15:57 | 60.25067 | 5.89431 | 12816 ft | 352 kts | 71° |
| 2026-05-05 15:57 | 60.25733 | 5.94223 | 13344 ft | 356 kts | 71° |
| 2026-05-05 15:58 | 60.26397 | 5.99014 | 13866 ft | 360 kts | 71° |
| 2026-05-05 15:58 | 60.27075 | 6.03912 | 14403 ft | 364 kts | 71° |
| 2026-05-05 15:58 | 60.27752 | 6.08823 | 14919 ft | 367 kts | 71° |
| 2026-05-05 15:58 | 60.28433 | 6.13775 | 15359 ft | 372 kts | 71° |
| 2026-05-05 15:59 | 60.29127 | 6.18826 | 15817 ft | 377 kts | 71° |
| 2026-05-05 15:59 | 60.29825 | 6.23921 | 16267 ft | 381 kts | 70° |
| 2026-05-05 15:59 | 60.30529 | 6.29093 | 16688 ft | 386 kts | 71° |
| 2026-05-05 15:59 | 60.31242 | 6.34339 | 17137 ft | 390 kts | 70° |
| 2026-05-05 16:00 | 60.31953 | 6.39605 | 17581 ft | 394 kts | 70° |
| 2026-05-05 16:00 | 60.32668 | 6.44922 | 17994 ft | 398 kts | 70° |
| 2026-05-05 16:00 | 60.33403 | 6.50387 | 18429 ft | 401 kts | 70° |
| 2026-05-05 16:00 | 60.34123 | 6.55757 | 18850 ft | 404 kts | 70° |
| 2026-05-05 16:01 | 60.34861 | 6.61288 | 19267 ft | 407 kts | 70° |
| 2026-05-05 16:01 | 60.35593 | 6.66790 | 19622 ft | 412 kts | 71° |
| 2026-05-05 16:01 | 60.36341 | 6.72423 | 19932 ft | 417 kts | 71° |
| 2026-05-05 16:01 | 60.37089 | 6.78089 | 20244 ft | 422 kts | 71° |
| 2026-05-05 16:02 | 60.37840 | 6.83789 | 20559 ft | 426 kts | 71° |
| 2026-05-05 16:02 | 60.38600 | 6.89603 | 20915 ft | 430 kts | 71° |
| 2026-05-05 16:02 | 60.39361 | 6.95444 | 21234 ft | 433 kts | 71° |
| 2026-05-05 16:02 | 60.40133 | 7.01405 | 21528 ft | 438 kts | 71° |
| 2026-05-05 16:03 | 60.40861 | 7.07404 | 21873 ft | 444 kts | 75° |
| 2026-05-05 16:03 | 60.41253 | 7.13607 | 22250 ft | 448 kts | 84° |
| 2026-05-05 16:03 | 60.41238 | 7.19880 | 22728 ft | 448 kts | 91° |
| 2026-05-05 16:03 | 60.41042 | 7.26142 | 23135 ft | 450 kts | 93° |
| 2026-05-05 16:04 | 60.40801 | 7.32452 | 23459 ft | 453 kts | 93° |
| 2026-05-05 16:04 | 60.40559 | 7.38774 | 23794 ft | 455 kts | 94° |
| 2026-05-05 16:04 | 60.40325 | 7.45137 | 24146 ft | 457 kts | 93° |
| 2026-05-05 16:04 | 60.40090 | 7.51589 | 24503 ft | 459 kts | 93° |
| 2026-05-05 16:05 | 60.39860 | 7.58005 | 24898 ft | 459 kts | 93° |
| 2026-05-05 16:05 | 60.39639 | 7.64333 | 25306 ft | 460 kts | 93° |
| 2026-05-05 16:05 | 60.39406 | 7.70860 | 25649 ft | 461 kts | 94° |
| 2026-05-05 16:05 | 60.39174 | 7.77330 | 25941 ft | 464 kts | 94° |
| 2026-05-05 16:06 | 60.38940 | 7.83762 | 26238 ft | 466 kts | 94° |
| 2026-05-05 16:06 | 60.38698 | 7.90293 | 26546 ft | 468 kts | 95° |
| 2026-05-05 16:06 | 60.38454 | 7.96814 | 26778 ft | 470 kts | 94° |
| 2026-05-05 16:06 | 60.38203 | 8.03453 | 26791 ft | 472 kts | 94° |
| 2026-05-05 16:07 | 60.37948 | 8.10046 | 26757 ft | 473 kts | 95° |
| 2026-05-05 16:07 | 60.37687 | 8.16644 | 26206 ft | 477 kts | 94° |
| 2026-05-05 16:07 | 60.37423 | 8.23350 | 25330 ft | 484 kts | 94° |
| 2026-05-05 16:07 | 60.37154 | 8.30057 | 24694 ft | 484 kts | 94° |
| 2026-05-05 16:08 | 60.36880 | 8.36801 | 24119 ft | 483 kts | 94° |
| 2026-05-05 16:08 | 60.36605 | 8.43503 | 23560 ft | 482 kts | 94° |
| 2026-05-05 16:08 | 60.36322 | 8.50262 | 23004 ft | 479 kts | 94° |
| 2026-05-05 16:08 | 60.36045 | 8.56889 | 22485 ft | 476 kts | 94° |
| 2026-05-05 16:09 | 60.35761 | 8.63537 | 21967 ft | 473 kts | 94° |
| 2026-05-05 16:09 | 60.35481 | 8.70099 | 21416 ft | 469 kts | 95° |
| 2026-05-05 16:09 | 60.35196 | 8.76658 | 20852 ft | 465 kts | 94° |
| 2026-05-05 16:09 | 60.34913 | 8.83094 | 20415 ft | 459 kts | 94° |
| 2026-05-05 16:10 | 60.34631 | 8.89427 | 19974 ft | 452 kts | 94° |
| 2026-05-05 16:10 | 60.34350 | 8.95664 | 19536 ft | 445 kts | 94° |
| 2026-05-05 16:10 | 60.34072 | 9.01809 | 19119 ft | 439 kts | 94° |
| 2026-05-05 16:10 | 60.33793 | 9.07890 | 18667 ft | 433 kts | 94° |
| 2026-05-05 16:11 | 60.33517 | 9.13871 | 18209 ft | 428 kts | 94° |
| 2026-05-05 16:11 | 60.32692 | 9.31304 | 17113 ft | 406 kts | 94° |
| 2026-05-05 16:12 | 60.32411 | 9.36901 | 16847 ft | 397 kts | 96° |
| 2026-05-05 16:12 | 60.31412 | 9.47608 | 16269 ft | 381 kts | 101° |
| 2026-05-05 16:13 | 60.29758 | 9.62876 | 15213 ft | 366 kts | 101° |
| 2026-05-05 16:13 | 60.29223 | 9.67846 | 14861 ft | 360 kts | 102° |
| 2026-05-05 16:13 | 60.28698 | 9.72716 | 14513 ft | 355 kts | 102° |
| 2026-05-05 16:14 | 60.27663 | 9.82272 | 13802 ft | 345 kts | 102° |
| 2026-05-05 16:14 | 60.25711 | 9.90852 | 13079 ft | 335 kts | 126° |
| 2026-05-05 16:15 | 60.23069 | 9.98353 | 12390 ft | 326 kts | 123° |
| 2026-05-05 16:15 | 60.20741 | 10.06003 | 11827 ft | 312 kts | 122° |
| 2026-05-05 16:16 | 60.18513 | 10.13303 | 11823 ft | 306 kts | 122° |
| 2026-05-05 16:16 | 60.16270 | 10.20531 | 11823 ft | 306 kts | 123° |
| 2026-05-05 16:17 | 60.14004 | 10.27773 | 11826 ft | 306 kts | 123° |